Elimsport, Pennsylvania
Current Conditions -  °F | °C
As of 6:24 AM on Monday 22 Dec 2014 (Local Time) from KIPT Reporting Station
Broken Clouds Broken Clouds  
Wind Chill: 21°   Ceiling: 2200
Heat Index: 21°   Visibility: 10mi
Dew Point: 17°   Wind: 3mph
Humidity: 85%   Direction: 290°WNW
Pressure: 30.3"   Gusts: NA
Location:  41.1181°N, 77.0218°W
Report Text: KIPT 221124Z 29003KT 10SM BKN022 M06/M08 A3030 RMK AO2 T10611083
Loading
Personal Weather Stations






























Interactive Weather Map New forecast layout! Learn more

10-Day Weather Forecast

Advertisements
Track Severe Weather on mobile